Terminal Aerodrome Forecast
Issued by NWS Amarillo, TX

Current Version | Previous Version | Text Only | Print | Product List | Glossary On
Versions: 1 2 3 4 5 6 7 8 9 10 11 12 13 14 15 16 17 18 19
139
FTUS44 KAMA 231653 AAC
TAFGUY
TAF AMD
KGUY 231653Z 2317/2412 02020G30KT P6SM OVC050
     FM232100 04017KT P6SM BKN040
     FM240300 VRB06KT P6SM BKN060=

USA.gov is the U.S. government's official web portal to all federal, state and local government web resources and services.